PWSweather.com
Personal Weather Stations
Station Observations
WISCHPK61
Green Bay Schmitt Park, Green Bay, WI 54311

Green Bay Schmitt ParkGreen Bay, WI 54311

Lat: 44.514277, Lon: -87.935067

Elevation: 735

Station Type: Acu Rite Pro Weather Center model 02032C

http://greenbayweathercam.com

High Low Average
Temperature 44.1°F6.7°C 24.8°F-4.0°C 30.7°F-0.7°C
Dew Point 43.8°F6.6°C 14.7°F-9.6°C 28.8°F-1.8°C
Winds 2.3 mph 3.7 kmh Calm Calm Calm WSWCalm WSW
Wind Gusts 1.2 mph1.9 kmh -- --
Humidity 99% 49% 94%
Pressure 29.58 in1001.7 mb 29.37 in994.6 mb -
Precipitation 0.00 in0.0 mm - -
Hour Temp Dew Point Humidity Winds Wind Gusts Pressure Precip Precip Rate Daily Precip Total
12:00 AM 30.0°F-1.1°C 29.8°F-1.2°C 99% Calm Calm -- 29.37 in994.6 mb - 0.00 in0.0 mm 0.00 in0.0 mm
01:00 AM 28.8°F-1.8°C 28.6°F-1.9°C 99% Calm Calm -- 29.37 in994.6 mb - 0.00 in0.0 mm 0.00 in0.0 mm
02:00 AM 27.1°F-2.7°C 26.9°F-2.8°C 99% Calm Calm -- 29.39 in995.3 mb - 0.00 in0.0 mm 0.00 in0.0 mm
03:00 AM 26.8°F-2.9°C 26.6°F-3.0°C 99% Calm Calm -- 29.40 in995.6 mb - 0.00 in0.0 mm 0.00 in0.0 mm
04:00 AM 26.6°F-3.0°C 26.4°F-3.1°C 99% Calm Calm -- 29.41 in995.9 mb - 0.00 in0.0 mm 0.00 in0.0 mm
05:00 AM 27.3°F-2.6°C 27.1°F-2.7°C 99% Calm Calm -- 29.43 in996.6 mb - 0.00 in0.0 mm 0.00 in0.0 mm
06:00 AM 26.6°F-3.0°C 19.7°F-6.8°C 75% Calm Calm 1.2 mph1.9 kmh 29.46 in997.6 mb - 0.00 in0.0 mm 0.00 in0.0 mm
07:00 AM 25.5°F-3.6°C 25.3°F-3.7°C 99% Calm Calm -- 29.48 in998.3 mb - 0.00 in0.0 mm 0.00 in0.0 mm
08:00 AM 26.1°F-3.3°C 25.9°F-3.4°C 99% Calm Calm -- 29.51 in999.3 mb - 0.00 in0.0 mm 0.00 in0.0 mm
09:00 AM 29.1°F-1.6°C 28.9°F-1.7°C 99% 2.3 mph W3.7 kmh W 1.2 mph1.9 kmh 29.54 in1000.3 mb - 0.00 in0.0 mm 0.00 in0.0 mm
10:00 AM 33.7°F0.9°C 33.4°F0.8°C 99% Calm Calm -- 29.55 in1000.7 mb - 0.00 in0.0 mm 0.00 in0.0 mm
11:00 AM 33.3°F0.7°C 33.0°F0.6°C 99% Calm Calm -- 29.57 in1001.4 mb - 0.00 in0.0 mm 0.00 in0.0 mm
12:00 PM 33.4°F0.8°C 33.1°F0.6°C 99% Calm Calm -- 29.57 in1001.4 mb - 0.00 in0.0 mm 0.00 in0.0 mm
01:00 PM 35.2°F1.8°C 34.9°F1.6°C 99% Calm Calm -- 29.58 in1001.7 mb - 0.00 in0.0 mm 0.00 in0.0 mm
02:00 PM 40.4°F4.7°C 40.1°F4.5°C 99% Calm Calm -- 29.57 in1001.4 mb - 0.00 in0.0 mm 0.00 in0.0 mm
03:00 PM 44.1°F6.7°C 43.8°F6.6°C 99% Calm Calm -- 29.55 in1000.7 mb - 0.00 in0.0 mm 0.00 in0.0 mm
04:00 PM 37.5°F3.1°C 20.1°F-6.6°C 49% Calm Calm -- 29.55 in1000.7 mb - 0.00 in0.0 mm 0.00 in0.0 mm
05:00 PM 35.6°F2.0°C 35.3°F1.8°C 99% Calm Calm -- 29.54 in1000.3 mb - 0.00 in0.0 mm 0.00 in0.0 mm
06:00 PM 34.0°F1.1°C 33.7°F0.9°C 99% Calm Calm -- 29.54 in1000.3 mb - 0.00 in0.0 mm 0.00 in0.0 mm
07:00 PM 32.1°F0.1°C 31.9°F-0.1°C 99% Calm Calm -- 29.55 in1000.7 mb - 0.00 in0.0 mm 0.00 in0.0 mm
08:00 PM 29.0°F-1.7°C 28.8°F-1.8°C 99% Calm Calm -- 29.55 in1000.7 mb - 0.00 in0.0 mm 0.00 in0.0 mm
09:00 PM 27.5°F-2.5°C 27.3°F-2.6°C 99% Calm Calm -- 29.55 in1000.7 mb - 0.00 in0.0 mm 0.00 in0.0 mm
10:00 PM 26.2°F-3.2°C 26.0°F-3.3°C 99% Calm Calm -- 29.54 in1000.3 mb - 0.00 in0.0 mm 0.00 in0.0 mm
11:00 PM 25.7°F-3.5°C 20.4°F-6.4°C 80% Calm Calm -- 29.54 in1000.3 mb - 0.00 in0.0 mm 0.00 in0.0 mm